M I D A S
Marine Information and Data Acquisition System
Tripno 1764 of the Zeeleeuw from 2009-07-14 06:55:09 to 2009-07-14 15:07:34
Back to CruiseResearch ActivitiesStationsMapUnderway DataData graphs

EquipmentUnitsComment
TimeDGPSUTC
LatitudeDGPSDM.mWGS84
LongitudeDGPSDM.mWGS84
HeadingGyrodeg 
SOGDGPSknotsSpeed over ground
COGDGPSdegCourse over ground
DepthEcho soundermeters200 kHz
Missing or incorrect values are displayed as -999
Navigation data collected by the RV Zeeleeuw from 2009-07-14 06:40:25 to 2009-07-14 15:14:00
Time Latitude Longitude Heading SOG COG Depth
2009-07-14 06:41:31 51°13.663 2°55.96 129 0.1 215 7.2
2009-07-14 06:42:30 51°13.663 2°55.96 129.5 -999 118 7.3
2009-07-14 06:43:30 51°13.663 2°55.96 129.3 -999 80 -999
2009-07-14 06:44:30 51°13.663 2°55.96 122.9 0.1 194 7.5
2009-07-14 06:45:30 51°13.662 2°55.96 116.4 0.1 211 7.2
2009-07-14 06:46:30 51°13.664 2°55.949 112.5 1.5 296 7.4
2009-07-14 06:47:34 51°13.681 2°55.88 108.4 3 287 -999
2009-07-14 06:48:33 51°13.696 2°55.805 101.5 2.9 285 -999
2009-07-14 06:49:32 51°13.702 2°55.759 77.7 0.5 287 14.3
2009-07-14 06:50:31 51°13.7 2°55.751 45.8 1 228 14.3
2009-07-14 06:51:30 51°13.709 2°55.748 4.8 1.9 354 14.3
2009-07-14 06:52:30 51°13.763 2°55.697 328 5.5 326 11.9
2009-07-14 06:53:30 51°13.862 2°55.609 336.1 7.6 335 12.5
2009-07-14 06:54:30 51°13.982 2°55.521 337 8.1 335 12.4
2009-07-14 06:55:30 51°14.106 2°55.424 335.3 8.6 333 12.3
2009-07-14 06:56:30 51°14.23 2°55.302 324.1 8.9 320 12.7
2009-07-14 06:57:30 51°14.332 2°55.122 312.2 9.5 310 12.4
2009-07-14 06:58:30 51°14.441 2°54.933 319.3 10 317 11.7
2009-07-14 06:59:30 51°14.57 2°54.731 318.1 11.4 316 11.3
2009-07-14 07:00:30 51°14.725 2°54.552 327 11.7 328 11.2
2009-07-14 07:01:30 51°14.894 2°54.401 334.7 11.6 333 10.5
2009-07-14 07:02:30 51°15.067 2°54.265 333.7 11.7 333 10.1
2009-07-14 07:03:30 51°15.235 2°54.12 332.8 11.4 332 11.9
2009-07-14 07:04:30 51°15.405 2°53.981 335.4 11.5 334 12.2
2009-07-14 07:05:30 51°15.575 2°53.842 333.9 11.6 332 12.1
2009-07-14 07:06:30 51°15.75 2°53.717 343.3 11.5 342 12.2
2009-07-14 07:07:30 51°15.937 2°53.644 344.8 11.6 342 12.7
2009-07-14 07:08:30 51°16.109 2°53.504 329.4 11.7 328 12.7
2009-07-14 07:09:30 51°16.276 2°53.342 328.7 11.9 330 13
2009-07-14 07:10:30 51°16.446 2°53.172 330.7 12.1 330 13
2009-07-14 07:11:30 51°16.628 2°53.039 336.1 11.9 335 12.6
2009-07-14 07:12:30 51°16.808 2°52.904 334.1 11.9 333 10.5
2009-07-14 07:13:30 51°16.985 2°52.763 334 11.9 334 10.7
2009-07-14 07:14:30 51°17.164 2°52.623 334.8 12 335 10.7
2009-07-14 07:15:30 51°17.346 2°52.487 335.8 12 334 11.3
2009-07-14 07:16:30 51°17.532 2°52.382 349.7 12 350 11.5
2009-07-14 07:17:30 51°17.732 2°52.349 358.9 12.1 357 11.3
2009-07-14 07:18:30 51°17.933 2°52.328 357.8 12.1 356 11.5
2009-07-14 07:19:30 51°18.134 2°52.299 356.7 12.2 355 11.6
2009-07-14 07:20:30 51°18.336 2°52.266 356.2 12.2 354 12.2
2009-07-14 07:21:30 51°18.538 2°52.252 1.7 12 359 12.3
2009-07-14 07:22:30 51°18.74 2°52.247 0.5 12.1 358 13.3
2009-07-14 07:23:30 51°18.941 2°52.24 2.3 12.1 -999 14.1
2009-07-14 07:24:30 51°19.142 2°52.237 2.2 12.2 -999 15.1
2009-07-14 07:25:30 51°19.343 2°52.239 1.4 12 1 15.8
2009-07-14 07:26:30 51°19.543 2°52.23 359.3 11.9 356 16.2
2009-07-14 07:27:30 51°19.742 2°52.218 0.1 12 358 16.7
2009-07-14 07:28:30 51°19.941 2°52.209 0.6 12.1 359 16.8
2009-07-14 07:29:30 51°20.144 2°52.206 0.7 12.2 358 16.7
2009-07-14 07:30:30 51°20.345 2°52.203 0.8 12 359 15.6
2009-07-14 07:31:30 51°20.544 2°52.195 2 12 -999 15.3
2009-07-14 07:32:30 51°20.743 2°52.191 0.8 12 358 14.9
2009-07-14 07:33:30 51°20.943 2°52.185 2 12 -999 15.6
2009-07-14 07:34:30 51°21.143 2°52.179 0.7 12 359 17.1
2009-07-14 07:35:30 51°21.342 2°52.17 1.3 12 359 19
2009-07-14 07:36:30 51°21.543 2°52.161 2.3 12.1 -999 21.5
2009-07-14 07:37:30 51°21.744 2°52.155 1.3 12.1 -999 23.6
2009-07-14 07:38:30 51°21.947 2°52.159 0.1 12.2 -999 24.8
2009-07-14 07:39:30 51°22.151 2°52.162 0.6 12.3 1 24.1
2009-07-14 07:40:30 51°22.356 2°52.166 1.7 12.2 -999 23.9
2009-07-14 07:41:30 51°22.557 2°52.169 1.9 12 359 23.2
2009-07-14 07:42:30 51°22.758 2°52.171 2.1 12.1 -999 23.3
2009-07-14 07:43:30 51°22.96 2°52.171 0.2 12.2 359 24
2009-07-14 07:44:30 51°23.162 2°52.164 1 12.2 359 23.6
2009-07-14 07:45:30 51°23.367 2°52.166 0.9 12.4 1 20.3
2009-07-14 07:46:30 51°23.571 2°52.166 1.1 12.2 358 16.6
2009-07-14 07:47:30 51°23.774 2°52.164 0.8 12.2 358 16.7
2009-07-14 07:48:30 51°23.976 2°52.158 0.6 12.1 357 18.7
2009-07-14 07:49:30 51°24.178 2°52.146 0.1 12.1 358 18.3
2009-07-14 07:50:30 51°24.38 2°52.141 1.3 12.1 358 19.5
2009-07-14 07:51:30 51°24.58 2°52.134 2.2 12 -999 21.4
2009-07-14 07:52:30 51°24.78 2°52.133 1.6 12.1 359 22.4
2009-07-14 07:53:30 51°24.981 2°52.128 1.5 12.1 359 23.4
2009-07-14 07:54:30 51°25.184 2°52.121 0.6 12.2 358 25.6
2009-07-14 07:55:30 51°25.388 2°52.121 0.4 12.3 -999 25.9
2009-07-14 07:56:30 51°25.592 2°52.121 359.6 12.2 359 27.5
2009-07-14 07:57:30 51°25.795 2°52.127 2.4 12.1 1 26.2
2009-07-14 07:58:30 51°25.997 2°52.128 0.2 12.1 359 26.5
2009-07-14 07:59:30 51°26.197 2°52.116 0.8 12.1 358 26.7
2009-07-14 08:00:30 51°26.399 2°52.113 2.8 12.3 359 27.1
2009-07-14 08:01:30 51°26.604 2°52.112 2.2 12.2 359 26.5
2009-07-14 08:02:30 51°26.806 2°52.096 359.1 12.1 357 26.9
2009-07-14 08:03:30 51°27.007 2°52.079 359.3 12.1 358 25.2
2009-07-14 08:04:30 51°27.21 2°52.067 359.7 12.2 358 21.3
2009-07-14 08:05:30 51°27.413 2°52.052 358.4 12.2 357 21.2
2009-07-14 08:06:30 51°27.616 2°52.038 359.4 12.2 357 21.3
2009-07-14 08:07:30 51°27.818 2°52.021 359.1 12.1 356 21.6
2009-07-14 08:08:30 51°28.02 2°52.006 359.6 12.2 358 22.8
2009-07-14 08:09:30 51°28.222 2°51.989 358.8 12.2 357 25.6
2009-07-14 08:10:30 51°28.424 2°51.979 0.9 12.1 359 27.2
2009-07-14 08:11:30 51°28.625 2°51.975 1 12.1 1 28.5
2009-07-14 08:12:30 51°28.827 2°51.969 0.4 12.1 -999 29.9
2009-07-14 08:13:30 51°29.03 2°51.973 1.7 12.3 1 30.7
2009-07-14 08:14:30 51°29.235 2°51.98 2.1 12.3 2 30.5
2009-07-14 08:15:30 51°29.437 2°51.986 1.6 12 -999 30.1
2009-07-14 08:16:30 51°29.637 2°51.987 1.6 11.9 1 30
2009-07-14 08:17:30 51°29.836 2°51.988 1.5 12 -999 30.9
2009-07-14 08:18:30 51°30.036 2°51.988 1.5 12.1 -999 30.5
2009-07-14 08:19:30 51°30.237 2°51.987 1.6 12.1 -999 29.3
2009-07-14 08:20:30 51°30.438 2°51.982 1.8 12.1 -999 24.8
2009-07-14 08:21:30 51°30.64 2°51.975 0.9 12.1 359 18.7
2009-07-14 08:22:30 51°30.843 2°51.963 1.9 12.2 -999 20.6
2009-07-14 08:23:30 51°31.046 2°51.952 -999 12.2 356 23
2009-07-14 08:24:30 51°31.249 2°51.942 0.8 12.2 358 21
2009-07-14 08:25:30 51°31.451 2°51.937 2.3 12.1 -999 24.5
2009-07-14 08:26:30 51°31.593 2°51.926 358.3 6.2 356 25.4
2009-07-14 08:27:30 51°31.67 2°51.907 346.4 3.8 346 24.7
2009-07-14 08:28:30 51°31.73 2°51.906 25 3.6 22 25.7
2009-07-14 08:29:30 51°31.763 2°51.959 75 2.2 61 26.3
2009-07-14 08:30:30 51°31.774 2°52.004 94 1.5 73 25.8
2009-07-14 08:31:30 51°31.782 2°52.04 94.4 1.5 69 25.6
2009-07-14 08:32:30 51°31.79 2°52.081 88.3 1.8 70 25
2009-07-14 08:33:30 51°31.802 2°52.121 80.1 1.3 60 24.1
2009-07-14 08:34:30 51°31.812 2°52.131 79.4 0.6 21 22.8
2009-07-14 08:35:30 51°31.822 2°52.137 80.7 0.6 18 22.4
2009-07-14 08:36:30 51°31.831 2°52.142 84.9 0.6 17 24.2
2009-07-14 08:37:30 51°31.84 2°52.145 91.9 0.6 3 25
2009-07-14 08:38:31 51°31.852 2°52.118 98.9 1.7 299 -999
2009-07-14 08:39:31 51°31.856 2°52.124 121.8 1.7 114 25.5
2009-07-14 08:40:30 51°31.82 2°52.145 184.1 3 188 22.5
2009-07-14 08:41:30 51°31.785 2°52.116 215.4 2.1 225 24.3
2009-07-14 08:42:30 51°31.779 2°52.095 236.9 0.4 315 24.5
2009-07-14 08:43:30 51°31.787 2°52.099 256.5 0.5 23 24.3
2009-07-14 08:44:30 51°31.794 2°52.105 262.2 0.5 28 24.2
2009-07-14 08:45:30 51°31.802 2°52.11 267 0.5 21 24.2
2009-07-14 08:46:30 51°31.81 2°52.115 275.8 0.6 20 24
2009-07-14 08:47:30 51°31.817 2°52.12 285.9 0.4 19 22.6
2009-07-14 08:48:30 51°31.821 2°52.133 294.2 1.2 95 21.8
2009-07-14 08:49:34 51°31.809 2°52.188 301.6 2.2 116 -999
2009-07-14 08:50:32 51°31.808 2°52.2 295.7 1 303 24.4
2009-07-14 08:51:31 51°31.804 2°52.144 236.6 3.6 240 22.2
2009-07-14 08:52:30 51°31.772 2°52.046 251 4.2 255 25.3
2009-07-14 08:53:30 51°31.792 2°51.878 297.3 8.1 296 26.9
2009-07-14 08:54:30 51°31.8 2°51.706 237.4 4.6 236 25.6
2009-07-14 08:55:30 51°31.749 2°51.675 163.4 2.8 163 26.5
2009-07-14 08:56:30 51°31.725 2°51.717 113.2 1.9 111 26.2
2009-07-14 08:57:30 51°31.72 2°51.77 95.1 2.3 89 25.8
2009-07-14 08:58:30 51°31.72 2°51.835 99.8 2.3 93 21.5
2009-07-14 08:59:30 51°31.717 2°51.884 105.4 0.9 87 23.7
2009-07-14 09:00:30 51°31.722 2°51.887 110 0.4 339 24.5
2009-07-14 09:01:30 51°31.73 2°51.875 109 0.7 313 24.8
2009-07-14 09:02:30 51°31.739 2°51.853 103.9 1.2 296 25
2009-07-14 09:03:30 51°31.747 2°51.821 93.7 1.2 291 24.7
2009-07-14 09:04:30 51°31.754 2°51.813 68.4 0.8 36 24.9
2009-07-14 09:05:30 51°31.772 2°51.842 56.5 2.1 45 26.5
2009-07-14 09:06:30 51°31.803 2°51.89 48.7 2.9 40 26.9
2009-07-14 09:07:30 51°31.845 2°51.94 41.6 3.4 34 26.1
2009-07-14 09:08:30 51°31.895 2°51.984 28.8 3.5 21 25.8
2009-07-14 09:09:30 51°31.952 2°51.996 4.9 3.5 357 25.2
2009-07-14 09:10:30 51°32.007 2°51.967 335.8 3.7 329 25.6
2009-07-14 09:11:30 51°32.048 2°51.893 297.4 3.8 294 26.1
2009-07-14 09:12:30 51°32.053 2°51.795 260.7 3.8 262 27.5
2009-07-14 09:13:30 51°32.035 2°51.695 243.1 4 245 27.6
2009-07-14 09:14:30 51°32.002 2°51.599 236.9 4.3 240 29
2009-07-14 09:15:30 51°31.966 2°51.5 240 4.3 242 27.7
2009-07-14 09:16:30 51°31.933 2°51.399 237.5 4.1 237 29.2
2009-07-14 09:17:30 51°31.886 2°51.331 207.1 3.8 212 27.9
2009-07-14 09:18:30 51°31.828 2°51.286 195.4 3.8 198 27
2009-07-14 09:19:30 51°31.765 2°51.265 182.3 3.9 188 28.4
2009-07-14 09:20:30 51°31.706 2°51.275 153.4 3.5 158 26.6
2009-07-14 09:21:30 51°31.654 2°51.321 142.3 3.6 145 28.3
2009-07-14 09:22:30 51°31.606 2°51.38 138.3 3.7 141 26.9
2009-07-14 09:23:30 51°31.58 2°51.454 95.4 3 93 26.4
2009-07-14 09:24:30 51°31.593 2°51.534 68.3 3.4 66 24.8
2009-07-14 09:25:30 51°31.618 2°51.623 73.6 3.9 70 23.7
2009-07-14 09:26:30 51°31.644 2°51.72 65.8 4.1 65 25.5
2009-07-14 09:27:30 51°31.673 2°51.82 68.5 4.2 65 25.6
2009-07-14 09:28:30 51°31.699 2°51.925 73.2 4.2 70 23.2
2009-07-14 09:29:30 51°31.73 2°52.023 62.2 4.2 59 25.6
2009-07-14 09:30:30 51°31.759 2°52.125 74.4 4.1 72 23.9
2009-07-14 09:31:30 51°31.788 2°52.225 63.2 4.1 60 22.5
2009-07-14 09:32:30 51°31.822 2°52.323 66.2 4.2 63 24
2009-07-14 09:33:30 51°31.854 2°52.424 66 4.2 62 23.9
2009-07-14 09:34:30 51°31.887 2°52.524 66.1 4.1 60 20.1
2009-07-14 09:35:30 51°31.937 2°52.584 24.6 3.8 14 22.7
2009-07-14 09:36:30 51°31.999 2°52.568 339 3.9 328 23.7
2009-07-14 09:37:30 51°32.033 2°52.481 287.5 3.9 281 22.5
2009-07-14 09:38:30 51°32.02 2°52.382 237.5 3.9 240 24.9
2009-07-14 09:39:30 51°31.973 2°52.303 215.8 4.3 220 23.8
2009-07-14 09:40:30 51°31.916 2°52.244 202.6 4 209 25.2
2009-07-14 09:41:30 51°31.862 2°52.184 220.2 3.9 223 22.6
2009-07-14 09:42:30 51°31.814 2°52.121 208.5 3.8 216 22.6
2009-07-14 09:43:30 51°31.772 2°52.047 237.2 3.7 240 24.9
2009-07-14 09:44:30 51°31.751 2°51.952 256.1 3.8 255 25.4
2009-07-14 09:45:30 51°31.737 2°51.851 257.1 4 256 24.5
2009-07-14 09:46:30 51°31.719 2°51.748 252.5 4 253 25.8
2009-07-14 09:47:30 51°31.7 2°51.643 256.6 4.2 256 25.8
2009-07-14 09:48:30 51°31.692 2°51.534 273.8 4.1 270 22.6
2009-07-14 09:49:30 51°31.685 2°51.429 254.3 3.8 253 27.1
2009-07-14 09:50:30 51°31.654 2°51.346 222.5 3.5 225 28
2009-07-14 09:51:30 51°31.606 2°51.301 188.4 3.2 195 27.3
2009-07-14 09:52:30 51°31.557 2°51.305 149.6 2.8 158 26.8
2009-07-14 09:53:30 51°31.525 2°51.354 109 2.6 113 26.6
2009-07-14 09:54:30 51°31.525 2°51.42 72.1 2.5 72 25.2
2009-07-14 09:55:30 51°31.55 2°51.485 53.8 3.1 51 25.9
2009-07-14 09:56:30 51°31.584 2°51.556 58.5 3.5 57 23.9
2009-07-14 09:57:30 51°31.612 2°51.638 63.1 3.5 61 22.9
2009-07-14 09:58:30 51°31.641 2°51.722 62.9 3.6 62 25.3
2009-07-14 09:59:30 51°31.67 2°51.805 61.5 3.6 60 25.3
2009-07-14 10:00:30 51°31.699 2°51.89 63.1 3.6 62 20.9
2009-07-14 10:01:30 51°31.729 2°51.972 55.9 3.5 53 25.2
2009-07-14 10:02:30 51°31.769 2°52.042 48.3 3.5 46 24.6
2009-07-14 10:03:30 51°31.804 2°52.113 58.6 3.2 57 23.6
2009-07-14 10:04:30 51°31.831 2°52.185 60.6 3.1 60 24.7
2009-07-14 10:05:30 51°31.853 2°52.264 72.4 3.5 75 23.1
2009-07-14 10:06:30 51°31.861 2°52.359 84.8 3.7 89 22.4
2009-07-14 10:07:30 51°31.854 2°52.46 97 3.9 103 23.4
2009-07-14 10:08:30 51°31.842 2°52.562 93 3.9 97 22.2
2009-07-14 10:09:30 51°31.849 2°52.657 63.6 3.3 63 19.4
2009-07-14 10:10:30 51°31.891 2°52.705 22.4 3.2 10 21
2009-07-14 10:11:30 51°31.943 2°52.68 337.8 3.6 323 23.7
2009-07-14 10:12:30 51°31.973 2°52.594 290.4 3.9 279 23.6
2009-07-14 10:13:30 51°31.96 2°52.49 244.6 4.2 243 21.9
2009-07-14 10:14:30 51°31.911 2°52.403 216.5 4.6 219 23.8
2009-07-14 10:15:30 51°31.846 2°52.325 217.7 5 221 23.6
2009-07-14 10:16:30 51°31.798 2°52.224 244.7 4.6 243 23.8
2009-07-14 10:17:30 51°31.774 2°52.114 260 4.2 255 23.8
2009-07-14 10:18:30 51°31.753 2°52.008 255.6 4.1 252 24.6
2009-07-14 10:19:30 51°31.734 2°51.905 262.8 4 257 24.9
2009-07-14 10:20:30 51°31.722 2°51.802 270.2 3.9 262 23.5
2009-07-14 10:21:30 51°31.714 2°51.699 271.8 3.9 265 26.3
2009-07-14 10:22:30 51°31.706 2°51.596 270.5 3.9 262 25.5
2009-07-14 10:23:30 51°31.697 2°51.493 268 3.9 259 25.2
2009-07-14 10:24:30 51°31.683 2°51.392 257 3.9 250 26.1
2009-07-14 10:25:30 51°31.649 2°51.309 224.1 3.6 224 27.7
2009-07-14 10:26:30 51°31.594 2°51.266 178.6 3.7 188 27.4
2009-07-14 10:27:30 51°31.54 2°51.288 128.4 3.1 142 26
2009-07-14 10:28:30 51°31.524 2°51.36 72.4 2.9 78 26.3
2009-07-14 10:29:30 51°31.548 2°51.442 61.6 3.9 64 24.4
2009-07-14 10:30:30 51°31.577 2°51.543 63 4.3 65 24.9
2009-07-14 10:31:30 51°31.611 2°51.642 57.4 4.2 58 22.6
2009-07-14 10:32:30 51°31.647 2°51.738 60 4.1 62 25.5
2009-07-14 10:33:30 51°31.682 2°51.833 56.7 4.2 58 25.3
2009-07-14 10:34:30 51°31.715 2°51.931 60.8 4.1 63 24.5
2009-07-14 10:35:30 51°31.746 2°52.03 61 4.2 64 24.3
2009-07-14 10:36:30 51°31.778 2°52.129 60.2 4.2 62 24.2
2009-07-14 10:37:30 51°31.81 2°52.227 60 4.1 62 24.9
2009-07-14 10:38:30 51°31.84 2°52.324 63.7 4.1 67 22.8
2009-07-14 10:39:30 51°31.864 2°52.425 67.1 4 72 23.9
2009-07-14 10:40:30 51°31.883 2°52.528 69.6 4.1 75 20.1
2009-07-14 10:41:30 51°31.899 2°52.632 68.3 4 74 21.4
2009-07-14 10:42:30 51°31.927 2°52.716 39.5 3.2 32 23.3
2009-07-14 10:43:30 51°31.979 2°52.705 346 3.7 326 23.7
2009-07-14 10:44:30 51°32.012 2°52.619 302.7 3.9 282 24.6
2009-07-14 10:45:30 51°32.004 2°52.516 256.3 4 247 24.9
2009-07-14 10:46:30 51°31.963 2°52.423 227.3 4.5 228 23
2009-07-14 10:47:30 51°31.906 2°52.343 218.3 4.4 220 22.8
2009-07-14 10:48:30 51°31.855 2°52.265 229.5 4.2 228 23.8
2009-07-14 10:49:30 51°31.816 2°52.177 247 3.9 239 23.5
2009-07-14 10:50:30 51°31.79 2°52.084 265.4 3.7 252 24.1
2009-07-14 10:51:30 51°31.771 2°51.988 260.9 4 250 25.5
2009-07-14 10:52:30 51°31.742 2°51.888 249.6 4.2 242 25.2
2009-07-14 10:53:30 51°31.706 2°51.785 246.8 4.5 239 25.2
2009-07-14 10:54:30 51°31.669 2°51.679 249.8 4.5 241 25.8
2009-07-14 10:55:30 51°31.634 2°51.578 247.7 4 239 25
2009-07-14 10:56:30 51°31.602 2°51.496 246.4 3.3 237 25.6
2009-07-14 10:57:30 51°31.559 2°51.429 203.2 4 205 25
2009-07-14 10:58:30 51°31.5 2°51.435 124.8 3.2 143 25
2009-07-14 10:59:30 51°31.494 2°51.495 48.6 2.5 51 23.4
2009-07-14 11:00:30 51°31.532 2°51.555 44.4 3.8 44 25.1
2009-07-14 11:01:30 51°31.576 2°51.637 51.2 4.2 52 24.1
2009-07-14 11:02:30 51°31.62 2°51.716 45.1 3.2 44 24.8
2009-07-14 11:03:30 51°31.653 2°51.761 42.8 2.3 41 25.8
2009-07-14 11:04:30 51°31.679 2°51.798 45.7 2 42 25.3
2009-07-14 11:05:30 51°31.7 2°51.832 46.5 1.5 45 24.7
2009-07-14 11:06:30 51°31.715 2°51.853 40.1 0.8 36 22
2009-07-14 11:07:30 51°31.718 2°51.861 52.4 0.2 94 22.9
2009-07-14 11:08:30 51°31.714 2°51.865 57.4 0.4 172 22.5
2009-07-14 11:09:30 51°31.706 2°51.864 62.6 0.6 190 21.4
2009-07-14 11:10:30 51°31.696 2°51.861 69.1 0.7 191 24.1
2009-07-14 11:11:30 51°31.685 2°51.856 72.3 0.8 197 25.1
2009-07-14 11:12:30 51°31.674 2°51.861 75.6 1.1 112 25.2
2009-07-14 11:13:30 51°31.683 2°51.905 38.3 2.2 28 23.4
2009-07-14 11:14:30 51°31.72 2°51.947 48.7 3.3 48 24.8
2009-07-14 11:15:30 51°31.757 2°52.024 49.8 3.6 43 24.7
2009-07-14 11:16:30 51°31.793 2°52.057 44.4 1.9 47 24.7
2009-07-14 11:17:30 51°31.798 2°52.098 75 1.5 100 23.9
2009-07-14 11:18:30 51°31.792 2°52.13 70.5 0.7 133 23.5
2009-07-14 11:19:30 51°31.781 2°52.139 82.1 0.9 164 23.9
2009-07-14 11:20:30 51°31.766 2°52.141 94.6 1 185 24.3
2009-07-14 11:21:30 51°31.748 2°52.14 99.5 1.2 160 23.9
2009-07-14 11:22:30 51°31.753 2°52.18 45.9 2.8 43 23.9
2009-07-14 11:23:30 51°31.807 2°52.194 0.4 3.3 336 23.6
2009-07-14 11:24:30 51°31.836 2°52.14 334.4 1.8 288 24
2009-07-14 11:25:30 51°31.824 2°52.106 357 1.7 221 21.1
2009-07-14 11:26:30 51°31.819 2°52.089 36.7 0.5 29 23.6
2009-07-14 11:27:30 51°31.816 2°52.097 69.2 0.5 143 24.2
2009-07-14 11:28:30 51°31.806 2°52.103 75.3 0.8 171 23.9
2009-07-14 11:29:30 51°31.792 2°52.104 82.7 1 186 23.4
2009-07-14 11:30:30 51°31.775 2°52.099 90.5 1.1 194 24.4
2009-07-14 11:31:30 51°31.757 2°52.09 97.7 1.1 200 23.9
2009-07-14 11:32:30 51°31.739 2°52.068 100.6 1.6 229 24.5
2009-07-14 11:33:30 51°31.731 2°52.075 52.1 1.4 51 24.8
2009-07-14 11:34:30 51°31.762 2°52.095 28.9 2 20 24.1
2009-07-14 11:35:30 51°31.78 2°52.112 34.9 0.9 16 23.7
2009-07-14 11:36:30 51°31.792 2°52.119 47.3 0.4 58 22.8
2009-07-14 11:37:30 51°31.791 2°52.123 55.4 0.4 199 23.4
2009-07-14 11:38:30 51°31.779 2°52.112 70.2 1.1 212 23.8
2009-07-14 11:39:30 51°31.764 2°52.096 79.7 1.1 214 24
2009-07-14 11:40:30 51°31.747 2°52.08 90.8 1.2 212 23.7
2009-07-14 11:41:30 51°31.729 2°52.061 104.1 1.4 214 25.2
2009-07-14 11:42:30 51°31.712 2°52.041 116.1 1.3 216 25.2
2009-07-14 11:43:30 51°31.694 2°52.019 125.2 1.4 219 25.2
2009-07-14 11:44:30 51°31.676 2°51.995 132 1.5 221 22.9
2009-07-14 11:45:30 51°31.658 2°51.969 137.4 1.5 223 23
2009-07-14 11:46:30 51°31.641 2°51.944 137.7 1.3 225 24.4
2009-07-14 11:47:30 51°31.626 2°51.919 136.2 1.3 225 24.6
2009-07-14 11:48:30 51°31.61 2°51.895 130.6 1.3 224 25.1
2009-07-14 11:49:30 51°31.595 2°51.871 125.3 1.2 225 25.4
2009-07-14 11:50:30 51°31.58 2°51.846 121.9 1.3 225 24.4
2009-07-14 11:51:30 51°31.562 2°51.821 120.5 1.4 223 23.1
2009-07-14 11:52:30 51°31.546 2°51.795 120.4 1.4 221 22.5
2009-07-14 11:53:30 51°31.518 2°51.793 120.8 3.2 150 21.8
2009-07-14 11:54:30 51°31.443 2°51.906 122.9 8.4 134 24.4
2009-07-14 11:55:30 51°31.34 2°52.097 118.6 10.3 126 21.6
2009-07-14 11:56:30 51°31.251 2°52.351 110.2 11.3 118 20.9
2009-07-14 11:57:30 51°31.164 2°52.62 109.7 11.4 119 19.7
2009-07-14 11:58:30 51°31.075 2°52.889 109.2 11.3 118 19.4
2009-07-14 11:59:30 51°30.986 2°53.157 110.5 11.4 118 18.9
2009-07-14 12:00:30 51°30.9 2°53.427 109.4 11.4 116 19.3
2009-07-14 12:01:30 51°30.812 2°53.699 111.3 11.5 119 15.3
2009-07-14 12:02:30 51°30.749 2°53.899 98.8 5.1 112 21.8
2009-07-14 12:03:30 51°30.73 2°53.986 90.4 2.5 111 22.8
2009-07-14 12:04:30 51°30.714 2°54.023 91.7 1.4 136 23.8
2009-07-14 12:05:30 51°30.697 2°54.037 98.9 1 173 24.3
2009-07-14 12:06:30 51°30.68 2°54.036 105.1 1 186 25.2
2009-07-14 12:07:30 51°30.663 2°54.03 114.9 1.1 198 25.8
2009-07-14 12:08:30 51°30.647 2°54.019 126.3 1 212 26.7
2009-07-14 12:09:30 51°30.633 2°54.001 133.7 1.1 223 26.7
2009-07-14 12:10:30 51°30.621 2°53.982 135.9 1 226 27.5
2009-07-14 12:11:30 51°30.609 2°53.964 133.5 1 225 27.4
2009-07-14 12:12:30 51°30.597 2°53.946 130.4 0.9 224 27.7
2009-07-14 12:13:30 51°30.586 2°53.928 126.5 0.9 226 28.4
2009-07-14 12:14:30 51°30.575 2°53.911 124.8 0.9 224 28.4
2009-07-14 12:15:30 51°30.563 2°53.894 124.8 0.9 222 29
2009-07-14 12:16:30 51°30.552 2°53.878 126.4 0.9 220 29.1
2009-07-14 12:17:30 51°30.54 2°53.863 129.9 0.9 220 29.3
2009-07-14 12:18:30 51°30.528 2°53.848 133.9 0.9 217 29.7
2009-07-14 12:19:30 51°30.515 2°53.833 138 0.9 215 29.7
2009-07-14 12:20:30 51°30.504 2°53.819 140 0.8 218 30
2009-07-14 12:21:30 51°30.492 2°53.805 141.6 0.9 216 29.8
2009-07-14 12:22:30 51°30.48 2°53.792 145.6 0.9 214 30.3
2009-07-14 12:23:30 51°30.467 2°53.778 151 1 216 30.5
2009-07-14 12:24:30 51°30.455 2°53.763 154.7 0.9 215 31.1
2009-07-14 12:25:30 51°30.444 2°53.749 157.9 0.9 216 31
2009-07-14 12:26:30 51°30.432 2°53.735 159.1 0.9 218 31.2
2009-07-14 12:27:30 51°30.42 2°53.722 160 0.9 217 31.4
2009-07-14 12:28:30 51°30.408 2°53.708 163.2 1.2 201 32
2009-07-14 12:29:30 51°30.357 2°53.72 145.6 5.2 150 32.8
2009-07-14 12:30:30 51°30.283 2°53.877 116.1 9.4 122 32.2
2009-07-14 12:31:30 51°30.213 2°54.118 103.5 10.5 106 31.8
2009-07-14 12:32:30 51°30.173 2°54.392 97.1 10.5 101 32.6
2009-07-14 12:33:30 51°30.142 2°54.668 96.2 10.5 101 33.3
2009-07-14 12:34:30 51°30.106 2°54.944 96.5 10.5 102 33
2009-07-14 12:35:30 51°30.068 2°55.217 97.9 10.6 103 30.2
2009-07-14 12:36:30 51°30.026 2°55.492 96.9 10.6 104 30.2
2009-07-14 12:37:30 51°29.983 2°55.767 98.8 10.7 105 30.1
2009-07-14 12:38:30 51°29.949 2°56.043 91.6 10.5 97 28.7
2009-07-14 12:39:30 51°29.935 2°56.319 88.7 10.4 94 28.7
2009-07-14 12:40:30 51°29.922 2°56.597 90.1 10.5 95 27.6
2009-07-14 12:41:30 51°29.906 2°56.875 89 10.4 94 27.2
2009-07-14 12:42:30 51°29.899 2°57.155 89.4 10.7 93 26.7
2009-07-14 12:43:30 51°29.887 2°57.438 90.1 10.7 95 27
2009-07-14 12:44:30 51°29.877 2°57.721 89.4 10.6 94 25.1
2009-07-14 12:45:30 51°29.863 2°58 91.1 10.5 95 25
2009-07-14 12:46:30 51°29.844 2°58.281 91.5 10.7 96 23.8
2009-07-14 12:47:30 51°29.829 2°58.562 90 10.5 94 25.2
2009-07-14 12:48:30 51°29.817 2°58.843 90.1 10.5 95 25
2009-07-14 12:49:30 51°29.804 2°59.122 90.1 10.5 94 26.5
2009-07-14 12:50:30 51°29.79 2°59.402 90.9 10.5 95 25.4
2009-07-14 12:51:30 51°29.774 2°59.684 89.5 10.6 94 27.2
2009-07-14 12:52:30 51°29.759 2°59.966 90.5 10.5 94 27.6
2009-07-14 12:53:30 51°29.745 3°0.246 90.9 10.5 97 27.8
2009-07-14 12:54:30 51°29.727 3°0.525 90.9 10.5 95 27.4
2009-07-14 12:55:30 51°29.709 3°0.805 90.4 10.6 95 28
2009-07-14 12:56:30 51°29.698 3°1.084 89.8 10.5 94 27.9
2009-07-14 12:57:30 51°29.685 3°1.363 89.9 10.5 94 27.1
2009-07-14 12:58:30 51°29.675 3°1.646 90.8 10.7 94 25.9
2009-07-14 12:59:30 51°29.666 3°1.935 91.5 10.9 94 25.7
2009-07-14 13:00:30 51°29.656 3°2.226 91 11 93 24.4
2009-07-14 13:01:30 51°29.643 3°2.519 90.4 11 93 24
2009-07-14 13:02:30 51°29.667 3°2.801 74.1 10.7 75 24.3
2009-07-14 13:03:30 51°29.714 3°3.08 72.8 10.8 76 23.9
2009-07-14 13:04:30 51°29.759 3°3.36 73.3 10.9 76 23
2009-07-14 13:05:30 51°29.803 3°3.64 73.9 10.8 76 22.9
2009-07-14 13:06:30 51°29.825 3°3.92 87.2 10.7 92 22.6
2009-07-14 13:07:30 51°29.81 3°4.136 93 5.6 103 22.2
2009-07-14 13:08:30 51°29.782 3°4.239 105.5 3.4 127 22.3
2009-07-14 13:09:30 51°29.743 3°4.294 117.7 3.1 144 22.8
2009-07-14 13:10:30 51°29.701 3°4.347 111.7 3.6 132 23.1
2009-07-14 13:11:30 51°29.665 3°4.439 102.5 4.4 119 23.2
2009-07-14 13:12:30 51°29.618 3°4.542 114.1 5 129 23.3
2009-07-14 13:13:30 51°29.571 3°4.651 104.6 4.8 118 23.3
2009-07-14 13:14:30 51°29.531 3°4.764 113.6 5.1 130 23.6
2009-07-14 13:15:30 51°29.467 3°4.859 129.3 5.3 142 23.6
2009-07-14 13:16:30 51°29.391 3°4.939 138 5.6 153 23.5
2009-07-14 13:17:30 51°29.311 3°5.014 129.3 5.4 145 23.5
2009-07-14 13:18:30 51°29.24 3°5.104 126.4 5.5 143 22.9
2009-07-14 13:19:30 51°29.166 3°5.191 131.6 5.6 146 22.3
2009-07-14 13:20:30 51°29.085 3°5.271 134.1 5.7 148 21.9
2009-07-14 13:21:30 51°28.999 3°5.343 147.3 5.9 161 20.9
2009-07-14 13:22:30 51°28.91 3°5.369 161.9 5.1 175 20.1
2009-07-14 13:23:30 51°28.829 3°5.374 166.9 4.7 180 19.5
2009-07-14 13:24:30 51°28.753 3°5.375 165 4.5 179 18.9
2009-07-14 13:25:30 51°28.679 3°5.377 166.3 4.4 180 17.8
2009-07-14 13:26:30 51°28.607 3°5.379 163.2 4.3 178 17.4
2009-07-14 13:27:30 51°28.537 3°5.388 158.1 4.2 174 16.9
2009-07-14 13:28:30 51°28.468 3°5.402 157.8 4.2 173 16.6
2009-07-14 13:29:30 51°28.398 3°5.413 159.2 4.2 174 16
2009-07-14 13:30:30 51°28.33 3°5.426 157.8 4.2 172 15.9
2009-07-14 13:31:30 51°28.261 3°5.438 160.4 4.2 174 15.8
2009-07-14 13:32:30 51°28.192 3°5.453 159 4.1 172 15.6
2009-07-14 13:33:30 51°28.124 3°5.468 159.2 4.2 173 15.7
2009-07-14 13:34:30 51°28.053 3°5.474 174.3 4.3 185 15.3
2009-07-14 13:35:30 51°27.983 3°5.447 200 4.3 201 15.1
2009-07-14 13:36:30 51°27.916 3°5.418 178.6 4.2 188 15.4
2009-07-14 13:37:30 51°27.845 3°5.405 180.8 5 189 15.4
2009-07-14 13:38:30 51°27.756 3°5.29 249 8.2 240 14.5
2009-07-14 13:39:30 51°27.672 3°5.064 243.8 10.9 239 14
2009-07-14 13:40:30 51°27.578 3°4.811 243.5 11.1 238 13.7
2009-07-14 13:41:30 51°27.477 3°4.536 243.4 12.6 240 13.2
2009-07-14 13:42:30 51°27.373 3°4.24 244.3 12.8 241 13.8
2009-07-14 13:43:30 51°27.267 3°3.943 243.5 12.8 241 14.2
2009-07-14 13:44:30 51°27.161 3°3.646 243.9 12.8 241 14.3
2009-07-14 13:45:30 51°27.054 3°3.349 242.4 12.9 239 14.5
2009-07-14 13:46:30 51°26.95 3°3.047 244.8 13 241 14.7
2009-07-14 13:47:30 51°26.845 3°2.743 244.7 13 241 14.1
2009-07-14 13:48:30 51°26.738 3°2.444 243.6 13 239 14.2
2009-07-14 13:49:30 51°26.632 3°2.143 245.4 13 241 13
2009-07-14 13:50:30 51°26.526 3°1.842 243.5 12.9 241 11.5
2009-07-14 13:51:30 51°26.418 3°1.546 242.5 12.9 239 12.9
2009-07-14 13:52:30 51°26.313 3°1.248 244.3 12.8 242 13.2
2009-07-14 13:53:30 51°26.211 3°0.949 244.7 12.8 242 13.4
2009-07-14 13:54:30 51°26.106 3°0.653 243.2 12.8 240 14.3
2009-07-14 13:55:30 51°26.004 3°0.352 245.4 12.9 241 17.4
2009-07-14 13:56:30 51°25.9 3°0.05 243.3 13 240 19.6
2009-07-14 13:57:30 51°25.793 2°59.75 244.4 13 241 20.9
2009-07-14 13:58:30 51°25.686 2°59.45 244.1 13 241 21.7
2009-07-14 13:59:30 51°25.582 2°59.146 243.4 13 240 22.1
2009-07-14 14:00:30 51°25.477 2°58.844 245.5 13 242 22.5
2009-07-14 14:01:30 51°25.372 2°58.541 243.3 13 240 22.5
2009-07-14 14:02:30 51°25.265 2°58.241 243.2 12.9 240 22.5
2009-07-14 14:03:30 51°25.16 2°57.941 244.2 12.8 239 22.6
2009-07-14 14:04:30 51°24.998 2°57.728 207.5 12.9 206 21.8
2009-07-14 14:05:30 51°24.798 2°57.6 199.7 12.8 201 20.7
2009-07-14 14:06:30 51°24.597 2°57.488 199.1 12.7 199 19.4
2009-07-14 14:07:30 51°24.397 2°57.377 199.7 12.8 201 18.4
2009-07-14 14:08:30 51°24.196 2°57.267 199.3 12.7 198 16.6
2009-07-14 14:09:30 51°23.998 2°57.151 200.6 12.7 201 14.1
2009-07-14 14:10:30 51°23.797 2°57.042 199 12.7 198 13.6
2009-07-14 14:11:30 51°23.598 2°56.934 198.7 12.7 199 18.7
2009-07-14 14:12:30 51°23.402 2°56.813 203.8 12.5 203 18.9
2009-07-14 14:13:30 51°23.215 2°56.677 205.1 12.3 205 18.7
2009-07-14 14:14:30 51°23.029 2°56.537 206 12.3 206 18.7
2009-07-14 14:15:30 51°22.842 2°56.399 203.8 12.4 203 18.7
2009-07-14 14:16:30 51°22.652 2°56.269 202.5 12.4 203 18.9
2009-07-14 14:17:30 51°22.465 2°56.137 204.5 12.3 204 19
2009-07-14 14:18:30 51°22.28 2°55.999 204.8 12.4 206 18.8
2009-07-14 14:19:30 51°22.094 2°55.864 202.6 12.2 203 18.6
2009-07-14 14:20:30 51°21.911 2°55.727 205 12 205 18.5
2009-07-14 14:21:30 51°21.731 2°55.593 204.7 11.9 206 18.4
2009-07-14 14:22:30 51°21.55 2°55.462 204.6 11.9 205 18.2
2009-07-14 14:23:30 51°21.371 2°55.325 204.4 11.9 206 18
2009-07-14 14:24:30 51°21.19 2°55.195 204.8 12 205 17.6
2009-07-14 14:25:30 51°21.01 2°55.057 204.9 12 206 17.4
2009-07-14 14:26:30 51°20.829 2°54.925 205.1 12 206 17.2
2009-07-14 14:27:30 51°20.649 2°54.794 203.8 11.9 205 16.7
2009-07-14 14:28:30 51°20.467 2°54.667 204 11.9 203 16.2
2009-07-14 14:29:30 51°20.287 2°54.535 205.5 11.9 206 15.7
2009-07-14 14:30:30 51°20.11 2°54.393 206.6 11.8 207 15.2
2009-07-14 14:31:30 51°19.935 2°54.249 206.8 11.8 209 14.3
2009-07-14 14:32:30 51°19.762 2°54.103 207.6 11.8 207 14.3
2009-07-14 14:33:30 51°19.588 2°53.958 209 11.7 208 14
2009-07-14 14:34:30 51°19.414 2°53.816 208.7 11.6 208 13.8
2009-07-14 14:35:30 51°19.242 2°53.669 210 11.6 209 13.6
2009-07-14 14:36:30 51°19.074 2°53.518 209.7 11.6 208 13.3
2009-07-14 14:37:30 51°18.903 2°53.367 209.5 11.7 209 13.2
2009-07-14 14:38:30 51°18.732 2°53.217 209.7 11.7 209 13.1
2009-07-14 14:39:30 51°18.562 2°53.066 209.6 11.7 209 12.8
2009-07-14 14:40:30 51°18.391 2°52.919 208.1 11.6 208 12.6
2009-07-14 14:41:30 51°18.221 2°52.771 209.8 11.5 209 12.5
2009-07-14 14:42:30 51°18.05 2°52.635 205.6 11.5 204 12.2
2009-07-14 14:43:30 51°17.871 2°52.526 200.2 11.4 199 12.1
2009-07-14 14:44:30 51°17.689 2°52.447 191 11.4 189 12
2009-07-14 14:45:30 51°17.497 2°52.417 185.9 11.5 185 12.2
2009-07-14 14:46:30 51°17.307 2°52.422 175.4 11.5 174 12.1
2009-07-14 14:47:30 51°17.12 2°52.481 166.5 11.6 164 11.8
2009-07-14 14:48:30 51°16.936 2°52.572 164.4 11.6 162 11.8
2009-07-14 14:49:30 51°16.753 2°52.67 163.4 11.7 162 11.6
2009-07-14 14:50:30 51°16.568 2°52.771 163.2 11.9 161 13.4
2009-07-14 14:51:30 51°16.383 2°52.876 163.4 11.7 162 13.8
2009-07-14 14:52:30 51°16.199 2°52.972 164.3 11.4 162 13.8
2009-07-14 14:53:30 51°16.023 2°53.083 157 11.4 153 13.7
2009-07-14 14:54:30 51°15.854 2°53.222 155.6 11.5 153 13.4
2009-07-14 14:55:30 51°15.688 2°53.364 153.7 11.3 151 13.2
2009-07-14 14:56:30 51°15.525 2°53.513 153.9 11.3 150 12.5
2009-07-14 14:57:30 51°15.363 2°53.666 152.4 11.3 149 12
2009-07-14 14:58:30 51°15.202 2°53.822 152.5 11.4 148 11.6
2009-07-14 14:59:30 51°15.043 2°53.987 150.1 11.4 146 11.5
2009-07-14 15:00:30 51°14.891 2°54.168 145.4 11.5 139 11.3
2009-07-14 15:01:30 51°14.751 2°54.374 141.9 11.4 136 12.2
2009-07-14 15:02:30 51°14.609 2°54.581 143.1 11.5 139 12.2
2009-07-14 15:03:30 51°14.479 2°54.809 130.1 11.9 125 12.7
2009-07-14 15:04:30 51°14.361 2°55.065 132.8 12 130 12.6
2009-07-14 15:05:30 51°14.24 2°55.276 134.5 9.5 137 13.1
2009-07-14 15:06:30 51°14.124 2°55.412 151.8 8.4 152 13.1
2009-07-14 15:07:30 51°13.997 2°55.503 156.8 8.4 157 13
2009-07-14 15:08:30 51°13.887 2°55.579 156.1 6.5 155 -999
2009-07-14 15:09:30 51°13.794 2°55.664 144.1 6.4 143 13.5
2009-07-14 15:10:30 51°13.73 2°55.763 131.6 4.5 131 14.2
2009-07-14 15:11:30 51°13.689 2°55.848 121.2 3.9 120 11.2
2009-07-14 15:12:30 51°13.669 2°55.925 108.5 2.4 109 9.1
2009-07-14 15:13:30 51°13.663 2°55.954 118.4 0.3 113 8